Time;durP1;ratioP1;P1;durP2;ratioP2;P2;SDS_P1;SDS_P2;PMS_P1;PMS_P2;Temp;Humidity;BMP_temperature;BMP_pressure;BME280_temperature;BME280_humidity;BME280_pressure;Samples;Min_cycle;Max_cycle;Signal;HPM_P1;HPM_P2
2022/11/01 00:01:39;;;;;;;;;;;11.60;99.90;;;;;;5043673;28;20078;-73
2022/11/01 00:04:04;;;;;;;;;;;11.70;99.90;;;;;;5028405;28;20045;-77
2022/11/01 00:06:30;;;;;;;;;;;11.70;99.90;;;;;;5042122;28;20364;-76
2022/11/01 00:08:55;;;;;;;;;;;11.50;99.90;;;;;;5043644;28;19917;-72
2022/11/01 00:11:21;;;;;;;;;;;11.40;99.90;;;;;;5044321;28;19919;-71
2022/11/01 00:13:48;;;;;;;;;;;11.20;99.90;;;;;;5042703;28;20159;-73
2022/11/01 00:16:14;;;;;;;;;;;11.20;99.90;;;;;;5042125;28;19974;-74
2022/11/01 00:18:39;;;;;;;;;;;11.30;99.90;;;;;;5046278;28;19976;-74
2022/11/01 00:21:05;;;;;;;;;;;11.20;99.90;;;;;;5046074;28;20222;-74
2022/11/01 00:23:30;;;;;;;;;;;11.20;99.90;;;;;;5054231;28;19923;-74
2022/11/01 00:25:59;;;;;;;;;;;11.20;99.90;;;;;;5043618;28;19931;-74
2022/11/01 00:28:25;;;;;;;;;;;11.30;99.90;;;;;;5037753;28;20299;-72
2022/11/01 00:30:51;;;;;;;;;;;11.40;99.90;;;;;;5050396;28;19917;-73
2022/11/01 00:33:16;;;;;;;;;;;11.50;99.90;;;;;;5041659;28;19916;-75
2022/11/01 00:35:42;;;;;;;;;;;11.60;99.90;;;;;;5043223;28;20039;-74
2022/11/01 00:38:07;;;;;;;;;;;11.50;99.90;;;;;;5041016;28;19996;-73
2022/11/01 00:40:33;;;;;;;;;;;11.50;99.90;;;;;;5039194;28;19917;-73
2022/11/01 00:42:58;;;;;;;;;;;11.50;99.90;;;;;;5053281;28;19946;-73
2022/11/01 00:45:24;;;;;;;;;;;11.50;99.90;;;;;;5039763;28;20280;-73
2022/11/01 00:47:49;;;;;;;;;;;11.40;99.90;;;;;;5043729;28;20387;-74
2022/11/01 00:50:15;;;;;;;;;;;11.50;99.90;;;;;;5042147;28;19932;-73
2022/11/01 00:52:40;;;;;;;;;;;11.50;99.90;;;;;;5040315;28;20008;-73
2022/11/01 00:55:06;;;;;;;;;;;11.60;99.90;;;;;;5027677;28;19912;-75
2022/11/01 00:57:32;;;;;;;;;;;11.60;99.90;;;;;;5031785;28;19939;-73
2022/11/01 00:59:57;;;;;;;;;;;11.70;99.90;;;;;;5042254;28;20415;-72
2022/11/01 01:02:23;;;;;;;;;;;11.80;99.90;;;;;;5044457;28;19913;-73
2022/11/01 01:04:49;;;;;;;;;;;11.80;99.90;;;;;;5021012;28;20075;-73
2022/11/01 01:07:15;;;;;;;;;;;11.80;99.90;;;;;;5026858;28;20387;-73
2022/11/01 01:09:40;;;;;;;;;;;11.80;99.90;;;;;;5041296;28;20125;-73
2022/11/01 01:12:06;;;;;;;;;;;11.70;99.90;;;;;;5025186;28;19916;-73
2022/11/01 01:14:31;;;;;;;;;;;11.70;99.90;;;;;;5023519;28;20060;-74
2022/11/01 01:16:57;;;;;;;;;;;11.60;99.90;;;;;;5040211;28;19938;-74
2022/11/01 07:54:55;;;;;;;;;;;14.00;99.90;;;;;;5097064;27;19919;-73
2022/11/01 07:57:21;;;;;;;;;;;14.40;99.90;;;;;;5087291;27;20595;-73
2022/11/01 07:59:46;;;;;;;;;;;14.40;99.90;;;;;;5093488;28;20161;-73
2022/11/01 08:02:12;;;;;;;;;;;14.40;99.90;;;;;;5096604;27;19916;-72
2022/11/01 08:04:37;;;;;;;;;;;14.40;99.90;;;;;;5088776;28;19916;-73
2022/11/01 08:07:02;;;;;;;;;;;14.40;99.90;;;;;;5092119;28;20038;-73
2022/11/01 08:09:28;;;;;;;;;;;14.40;99.90;;;;;;5092997;28;20329;-73
2022/11/01 08:11:54;;;;;;;;;;;14.40;99.90;;;;;;5112573;27;20307;-74
2022/11/01 08:14:19;;;;;;;;;;;14.50;99.90;;;;;;5093866;27;20196;-72
2022/11/01 08:16:47;;;;;;;;;;;14.50;99.90;;;;;;5086862;28;20020;-74
2022/11/01 08:19:12;;;;;;;;;;;14.60;99.90;;;;;;5085981;28;19958;-73
2022/11/01 08:21:38;;;;;;;;;;;14.70;99.90;;;;;;5081261;27;20007;-73
2022/11/01 08:24:03;;;;;;;;;;;14.80;99.90;;;;;;5083907;27;19923;-73
2022/11/01 08:26:29;;;;;;;;;;;14.80;99.90;;;;;;5081614;28;19915;-74
2022/11/01 08:28:54;;;;;;;;;;;14.80;99.90;;;;;;5083090;28;19938;-74
2022/11/01 08:31:20;;;;;;;;;;;14.90;99.90;;;;;;5082022;28;19943;-73
2022/11/01 08:33:46;;;;;;;;;;;14.90;99.90;;;;;;5101154;27;19923;-73
2022/11/01 08:36:11;;;;;;;;;;;14.80;99.90;;;;;;5088300;28;19969;-75
2022/11/01 08:38:37;;;;;;;;;;;14.80;99.90;;;;;;5097118;28;19920;-73
2022/11/01 08:41:02;;;;;;;;;;;14.60;99.90;;;;;;5093625;28;20240;-74
2022/11/01 08:43:28;;;;;;;;;;;14.60;99.90;;;;;;5085430;28;19931;-73
2022/11/01 08:45:53;;;;;;;;;;;14.70;99.90;;;;;;5076064;28;20349;-73
2022/11/01 08:48:19;;;;;;;;;;;14.70;99.90;;;;;;5090888;28;19930;-72
2022/11/01 08:50:44;;;;;;;;;;;15.00;99.90;;;;;;5107845;27;20056;-73
2022/11/01 08:53:11;;;;;;;;;;;15.30;99.90;;;;;;5075186;28;20370;-73
2022/11/01 08:55:36;;;;;;;;;;;15.40;99.90;;;;;;5084283;28;19947;-73
2022/11/01 08:58:02;;;;;;;;;;;15.40;99.90;;;;;;5077802;28;19912;-73
2022/11/01 09:00:28;;;;;;;;;;;15.40;99.90;;;;;;5061888;28;19999;-73
2022/11/01 09:02:54;;;;;;;;;;;15.30;99.90;;;;;;5064453;28;19956;-73
2022/11/01 09:05:20;;;;;;;;;;;15.10;99.90;;;;;;5069736;28;19916;-73
2022/11/01 09:07:45;;;;;;;;;;;14.90;99.90;;;;;;5063923;28;19923;-74
2022/11/01 09:10:11;;;;;;;;;;;14.90;99.90;;;;;;5062696;28;20007;-74
2022/11/01 09:12:37;;;;;;;;;;;15.00;99.90;;;;;;5069258;28;19920;-73
2022/11/01 09:15:03;;;;;;;;;;;15.00;99.90;;;;;;4717075;28;9999865;-74
2022/11/01 09:17:29;;;;;;;;;;;15.00;99.90;;;;;;5062565;28;19916;-73
2022/11/01 09:19:54;;;;;;;;;;;15.00;99.90;;;;;;5071372;28;19917;-72
2022/11/01 09:22:20;;;;;;;;;;;15.20;99.90;;;;;;5084504;28;19928;-72
2022/11/01 09:24:45;;;;;;;;;;;15.30;99.90;;;;;;5068486;28;20007;-73
2022/11/01 09:27:11;;;;;;;;;;;15.40;99.90;;;;;;5069584;28;19936;-73
2022/11/01 09:29:37;;;;;;;;;;;15.40;99.90;;;;;;5075118;28;19927;-73
2022/11/01 09:32:02;;;;;;;;;;;15.40;99.90;;;;;;5074750;28;19913;-74
2022/11/01 09:34:28;;;;;;;;;;;15.40;99.90;;;;;;5074311;28;20004;-75
2022/11/01 09:36:53;;;;;;;;;;;15.30;99.90;;;;;;5092892;28;19923;-73
2022/11/01 09:39:20;;;;;;;;;;;15.30;99.90;;;;;;5064110;28;20039;-74
2022/11/01 09:41:52;;;;;;;;;;;15.30;99.90;;;;;;5052521;28;19998;-73
2022/11/01 09:44:22;;;;;;;;;;;15.30;99.90;;;;;;4698533;28;10000027;-73
2022/11/01 09:46:50;;;;;;;;;;;15.30;99.90;;;;;;5053144;28;19951;-73
2022/11/01 09:49:18;;;;;;;;;;;15.20;99.90;;;;;;5056984;28;20262;-71
2022/11/01 09:51:44;;;;;;;;;;;15.20;99.90;;;;;;5061397;28;20460;-72
2022/11/01 09:54:09;;;;;;;;;;;15.20;99.90;;;;;;5060693;28;20327;-72
2022/11/01 09:57:01;;;;;;;;;;;15.10;99.90;;;;;;5069385;28;20038;-72
2022/11/01 09:59:33;;;;;;;;;;;15.20;99.90;;;;;;5060621;28;20062;-72
2022/11/01 10:02:24;;;;;;;;;;;15.50;99.90;;;;;;5064123;28;19942;-71
2022/11/01 10:05:02;;;;;;;;;;;15.80;99.90;;;;;;5055879;28;20315;-72
2022/11/01 10:07:27;;;;;;;;;;;16.40;99.90;;;;;;5077831;28;19949;-72
2022/11/01 10:09:56;;;;;;;;;;;17.00;99.90;;;;;;5086409;28;21150;-73
2022/11/01 10:12:41;;;;;;;;;;;16.90;99.90;;;;;;5066938;28;19912;-72
2022/11/01 10:15:15;;;;;;;;;;;16.60;99.90;;;;;;5070260;28;19922;-72
2022/11/01 10:17:51;;;;;;;;;;;16.30;99.90;;;;;;5083047;28;20010;-72
2022/11/01 10:20:17;;;;;;;;;;;16.00;99.90;;;;;;5081921;28;19916;-72
2022/11/01 10:22:46;;;;;;;;;;;15.80;99.90;;;;;;5091417;28;20459;-72
2022/11/01 10:25:24;;;;;;;;;;;15.60;99.90;;;;;;5058140;28;19912;-71
2022/11/01 10:28:01;;;;;;;;;;;15.30;99.90;;;;;;5066775;28;19939;-72
2022/11/01 10:30:28;;;;;;;;;;;15.10;99.90;;;;;;5077788;28;20353;-72
2022/11/01 10:33:11;;;;;;;;;;;14.90;99.90;;;;;;5084763;28;21187;-72
2022/11/01 10:35:39;;;;;;;;;;;14.80;99.90;;;;;;5082216;28;19921;-73
2022/11/01 10:38:05;;;;;;;;;;;14.60;99.90;;;;;;5070783;28;19942;-72
2022/11/01 10:40:57;;;;;;;;;;;14.00;99.90;;;;;;5075862;28;19920;-71
2022/11/01 10:43:24;;;;;;;;;;;18.10;99.90;;;;;;5054053;28;19967;-72
2022/11/01 10:45:51;;;;;;;;;;;18.30;99.90;;;;;;5079288;28;20379;-70
2022/11/01 10:48:37;;;;;;;;;;;18.20;99.90;;;;;;5070737;28;20415;-70
2022/11/01 10:51:04;;;;;;;;;;;18.40;99.90;;;;;;5054482;28;19927;-71
2022/11/01 10:53:33;;;;;;;;;;;18.30;99.90;;;;;;5091016;28;19923;-71
2022/11/01 10:56:02;;;;;;;;;;;19.00;99.90;;;;;;5091248;28;19963;-71
2022/11/01 10:58:33;;;;;;;;;;;18.80;99.90;;;;;;5099538;28;20044;-70
2022/11/01 11:01:02;;;;;;;;;;;18.60;99.90;;;;;;5071633;28;19922;-71
2022/11/01 11:03:31;;;;;;;;;;;18.60;99.90;;;;;;5094229;27;19924;-70
2022/11/01 11:06:03;;;;;;;;;;;19.00;99.90;;;;;;5086715;27;20018;-70
2022/11/01 11:08:29;;;;;;;;;;;19.20;99.90;;;;;;5098222;28;20406;-70
2022/11/01 11:10:56;;;;;;;;;;;19.90;99.90;;;;;;5080416;27;19919;-70
2022/11/01 11:13:23;;;;;;;;;;;20.90;99.90;;;;;;5083374;27;20398;-69
2022/11/01 11:16:04;;;;;;;;;;;22.20;99.90;;;;;;5089460;27;19923;-70
2022/11/01 11:18:35;;;;;;;;;;;22.70;99.90;;;;;;5099835;28;20000;-70
2022/11/01 11:21:03;;;;;;;;;;;21.90;99.90;;;;;;5102939;27;19923;-71
2022/11/01 11:23:31;;;;;;;;;;;20.80;99.90;;;;;;5067104;27;19923;-70
2022/11/01 11:26:16;;;;;;;;;;;20.30;99.90;;;;;;5103079;27;20023;-70
2022/11/01 11:28:44;;;;;;;;;;;20.00;99.90;;;;;;5083315;28;19916;-70
2022/11/01 11:31:31;;;;;;;;;;;19.40;99.90;;;;;;4744869;27;10000522;-70
2022/11/01 11:33:56;;;;;;;;;;;19.10;99.90;;;;;;5097667;28;20253;-70
2022/11/01 11:36:33;;;;;;;;;;;19.00;99.90;;;;;;5132940;27;19911;-70
2022/11/01 11:38:59;;;;;;;;;;;19.00;99.90;;;;;;5109888;27;20246;-70
2022/11/01 11:41:32;;;;;;;;;;;18.90;99.90;;;;;;5078558;28;19911;-70
2022/11/01 11:43:58;;;;;;;;;;;18.80;99.90;;;;;;5110583;28;20469;-70
2022/11/01 11:46:24;;;;;;;;;;;18.80;99.90;;;;;;5115452;27;19922;-70
2022/11/01 11:48:51;;;;;;;;;;;18.70;99.90;;;;;;5125661;27;20503;-70
2022/11/01 11:51:17;;;;;;;;;;;18.60;99.90;;;;;;5107503;27;19915;-70
2022/11/01 11:53:43;;;;;;;;;;;18.90;99.90;;;;;;5137234;27;19923;-70
2022/11/01 11:56:10;;;;;;;;;;;19.20;99.90;;;;;;5102449;28;19953;-70
2022/11/01 11:58:43;;;;;;;;;;;19.30;99.90;;;;;;5105914;27;20191;-71
2022/11/01 12:01:14;;;;;;;;;;;19.40;99.90;;;;;;5104141;27;19915;-70
2022/11/01 12:03:43;;;;;;;;;;;19.30;99.90;;;;;;5113285;27;20014;-70
2022/11/01 12:06:09;;;;;;;;;;;19.30;99.90;;;;;;5109514;28;19922;-70
2022/11/01 12:08:44;;;;;;;;;;;19.10;99.90;;;;;;5123493;27;20010;-70
2022/11/01 12:11:10;;;;;;;;;;;18.80;99.90;;;;;;5123969;27;19922;-71
2022/11/01 12:13:37;;;;;;;;;;;18.50;99.90;;;;;;5114441;27;19912;-70
2022/11/01 12:16:12;;;;;;;;;;;18.30;99.90;;;;;;5115666;27;20002;-70
2022/11/01 12:18:44;;;;;;;;;;;18.10;99.90;;;;;;5121807;27;20331;-69
2022/11/01 12:21:16;;;;;;;;;;;18.00;99.90;;;;;;5111618;28;19998;-70
2022/11/01 12:23:42;;;;;;;;;;;18.00;99.90;;;;;;5119737;27;19987;-69
2022/11/01 12:26:10;;;;;;;;;;;18.20;99.90;;;;;;5102039;27;19919;-70
2022/11/01 12:28:40;;;;;;;;;;;18.30;99.90;;;;;;5099400;27;19915;-70
2022/11/01 12:31:18;;;;;;;;;;;18.40;99.90;;;;;;5105099;27;19937;-70
2022/11/01 12:33:49;;;;;;;;;;;18.60;99.90;;;;;;5089537;27;19955;-69
2022/11/01 12:36:17;;;;;;;;;;;18.90;99.90;;;;;;5143933;27;19911;-70
2022/11/01 12:38:51;;;;;;;;;;;19.10;99.90;;;;;;5132915;27;20326;-70
2022/11/01 12:41:25;;;;;;;;;;;19.30;99.90;;;;;;5135108;27;19915;-69
2022/11/01 12:43:51;;;;;;;;;;;19.50;99.90;;;;;;5133530;27;20101;-70
2022/11/01 12:46:20;;;;;;;;;;;19.70;99.90;;;;;;5123185;27;20788;-69
2022/11/01 12:48:49;;;;;;;;;;;19.80;99.90;;;;;;5102233;27;20252;-69
2022/11/01 12:51:19;;;;;;;;;;;19.70;99.90;;;;;;5134470;27;19935;-70
2022/11/01 12:53:45;;;;;;;;;;;19.60;99.90;;;;;;5131865;27;20379;-70
2022/11/01 12:56:10;;;;;;;;;;;19.50;99.90;;;;;;5130059;27;19956;-70
2022/11/01 12:58:36;;;;;;;;;;;19.30;99.90;;;;;;5143322;27;19918;-70
2022/11/01 13:01:13;;;;;;;;;;;19.00;99.90;;;;;;5113648;27;20060;-70
2022/11/01 13:03:50;;;;;;;;;;;18.90;99.90;;;;;;5127651;27;19924;-70
2022/11/01 13:06:36;;;;;;;;;;;18.80;99.90;;;;;;5135291;27;20532;-70
2022/11/01 13:09:11;;;;;;;;;;;18.80;99.90;;;;;;5116133;27;20038;-69
2022/11/01 13:11:42;;;;;;;;;;;18.80;99.90;;;;;;5131740;27;20388;-70
2022/11/01 13:14:23;;;;;;;;;;;18.90;99.90;;;;;;5094473;27;20284;-69
2022/11/01 13:16:50;;;;;;;;;;;19.00;99.90;;;;;;5132658;27;19959;-70
2022/11/01 13:19:18;;;;;;;;;;;19.10;99.90;;;;;;5141132;27;19915;-69
2022/11/01 13:22:05;;;;;;;;;;;19.20;99.90;;;;;;5098639;27;19934;-70
2022/11/01 13:24:31;;;;;;;;;;;19.10;99.90;;;;;;5111800;27;19929;-70
2022/11/01 13:27:03;;;;;;;;;;;18.50;99.90;;;;;;5103458;27;19919;-69
2022/11/01 13:29:32;;;;;;;;;;;18.20;99.90;;;;;;5087758;27;19919;-70
2022/11/01 13:32:04;;;;;;;;;;;18.10;99.90;;;;;;5142251;27;20068;-70
2022/11/01 13:34:36;;;;;;;;;;;17.90;99.90;;;;;;5124243;27;19942;-72
2022/11/01 13:37:04;;;;;;;;;;;17.80;99.90;;;;;;5137577;27;19915;-70
2022/11/01 13:39:41;;;;;;;;;;;17.70;99.90;;;;;;5102566;27;19915;-69
2022/11/01 13:42:10;;;;;;;;;;;17.70;99.90;;;;;;5115028;27;19911;-69
2022/11/01 13:44:44;;;;;;;;;;;17.70;99.90;;;;;;5114112;27;19927;-70
2022/11/01 13:47:19;;;;;;;;;;;17.60;99.90;;;;;;5110645;27;20001;-70
2022/11/01 13:50:13;;;;;;;;;;;17.50;99.90;;;;;;5120172;27;19967;-70
2022/11/01 13:52:59;;;;;;;;;;;17.30;99.90;;;;;;5106155;27;19927;-70
2022/11/01 13:55:28;;;;;;;;;;;17.30;99.90;;;;;;5105175;27;20462;-70
2022/11/01 13:57:54;;;;;;;;;;;17.30;99.90;;;;;;5108385;27;21282;-70
2022/11/01 14:00:34;;;;;;;;;;;17.30;99.90;;;;;;5109198;27;19916;-70
2022/11/01 14:03:14;;;;;;;;;;;17.30;99.90;;;;;;5106657;27;20073;-69
2022/11/01 14:05:40;;;;;;;;;;;17.10;99.90;;;;;;5121530;27;19916;-70
2022/11/01 14:08:10;;;;;;;;;;;17.10;99.90;;;;;;5122565;27;19923;-71
2022/11/01 14:10:36;;;;;;;;;;;17.20;99.90;;;;;;5122825;27;19915;-70
2022/11/01 14:13:09;;;;;;;;;;;17.20;99.90;;;;;;5115638;27;20391;-70
2022/11/01 14:15:38;;;;;;;;;;;17.20;99.90;;;;;;5089798;27;19916;-70
2022/11/01 14:18:10;;;;;;;;;;;17.20;99.90;;;;;;5093809;27;20259;-70
2022/11/01 14:20:39;;;;;;;;;;;17.20;99.90;;;;;;5109938;27;20814;-70
2022/11/01 14:23:23;;;;;;;;;;;17.00;99.90;;;;;;5108296;27;19922;-71
2022/11/01 14:25:49;;;;;;;;;;;16.90;99.90;;;;;;5115573;27;19926;-70
2022/11/01 14:28:14;;;;;;;;;;;16.80;99.90;;;;;;5106191;27;19916;-70
2022/11/01 14:30:42;;;;;;;;;;;16.80;99.90;;;;;;5108472;27;19923;-69
2022/11/01 14:33:11;;;;;;;;;;;16.80;99.90;;;;;;5129943;27;19919;-69
2022/11/01 14:35:37;;;;;;;;;;;16.80;99.90;;;;;;5108533;27;19919;-71
2022/11/01 14:38:10;;;;;;;;;;;17.00;99.90;;;;;;5091139;27;19915;-70
2022/11/01 14:40:38;;;;;;;;;;;17.00;99.90;;;;;;5117423;27;19928;-70
2022/11/01 14:43:09;;;;;;;;;;;17.20;99.90;;;;;;5134865;27;20010;-70
2022/11/01 14:45:38;;;;;;;;;;;17.40;99.90;;;;;;5113218;27;19927;-71
2022/11/01 14:48:20;;;;;;;;;;;17.40;99.90;;;;;;5111425;27;19938;-71
2022/11/01 14:50:52;;;;;;;;;;;17.50;99.90;;;;;;5118787;27;19916;-71
2022/11/01 14:53:34;;;;;;;;;;;17.50;99.90;;;;;;5120307;27;19923;-71
2022/11/01 14:56:06;;;;;;;;;;;17.40;99.90;;;;;;5115931;27;19920;-71
2022/11/01 14:58:31;;;;;;;;;;;17.30;99.90;;;;;;5122567;27;19915;-71
2022/11/01 15:01:03;;;;;;;;;;;17.30;99.90;;;;;;5123687;27;20381;-71
2022/11/01 15:03:28;;;;;;;;;;;17.20;99.90;;;;;;5117564;27;19923;-70
2022/11/01 15:05:54;;;;;;;;;;;17.10;99.90;;;;;;5096949;28;19912;-71
2022/11/01 15:08:36;;;;;;;;;;;17.10;99.90;;;;;;5086787;27;19912;-70
2022/11/01 15:11:03;;;;;;;;;;;17.20;99.90;;;;;;5136291;27;19923;-70
2022/11/01 15:13:31;;;;;;;;;;;17.20;99.90;;;;;;5120895;27;19962;-70
2022/11/01 15:16:01;;;;;;;;;;;17.20;99.90;;;;;;5108056;27;19996;-71
2022/11/01 15:18:27;;;;;;;;;;;17.20;99.90;;;;;;5115242;27;20147;-71
2022/11/01 15:20:54;;;;;;;;;;;17.30;99.90;;;;;;5128785;27;19915;-70
2022/11/01 15:23:31;;;;;;;;;;;17.20;99.90;;;;;;5119343;27;19934;-72
2022/11/01 15:25:59;;;;;;;;;;;17.10;99.90;;;;;;5091728;28;20451;-70
2022/11/01 15:28:48;;;;;;;;;;;17.10;99.90;;;;;;5107774;27;19980;-70
2022/11/01 15:31:13;;;;;;;;;;;17.20;99.90;;;;;;5113167;27;19923;-70
2022/11/01 15:33:49;;;;;;;;;;;17.20;99.90;;;;;;5125041;27;19915;-70
2022/11/01 15:36:19;;;;;;;;;;;17.20;99.90;;;;;;5120960;27;19920;-71
2022/11/01 15:38:50;;;;;;;;;;;17.20;99.90;;;;;;5120130;27;19916;-70
2022/11/01 15:41:20;;;;;;;;;;;17.30;99.90;;;;;;5122575;27;19915;-70
2022/11/01 15:43:50;;;;;;;;;;;17.30;99.90;;;;;;5121838;27;19937;-71
2022/11/01 15:46:17;;;;;;;;;;;17.40;99.90;;;;;;5119482;28;20028;-72
2022/11/01 15:48:42;;;;;;;;;;;17.40;99.90;;;;;;5105322;27;19915;-71
2022/11/01 15:51:15;;;;;;;;;;;17.50;99.90;;;;;;5114897;28;19916;-70
2022/11/01 15:53:41;;;;;;;;;;;17.50;99.90;;;;;;5104641;27;19923;-70
2022/11/01 15:56:16;;;;;;;;;;;17.50;99.90;;;;;;5116830;27;20284;-70
2022/11/01 15:59:01;;;;;;;;;;;17.50;99.90;;;;;;5114338;27;19959;-71
2022/11/01 16:01:26;;;;;;;;;;;17.40;99.90;;;;;;5138983;27;20360;-71
2022/11/01 16:04:01;;;;;;;;;;;17.40;99.90;;;;;;5116428;27;19923;-71
2022/11/01 16:06:32;;;;;;;;;;;17.40;99.90;;;;;;5106671;27;19944;-71
2022/11/01 16:08:59;;;;;;;;;;;17.30;99.90;;;;;;5115562;27;19993;-70
2022/11/01 16:11:27;;;;;;;;;;;17.40;99.90;;;;;;5123665;27;19915;-70
2022/11/01 16:13:58;;;;;;;;;;;17.30;99.90;;;;;;5115213;27;19916;-71
2022/11/01 16:16:24;;;;;;;;;;;17.30;99.90;;;;;;5115292;27;20435;-71
2022/11/01 16:18:50;;;;;;;;;;;17.30;99.90;;;;;;5121468;27;19960;-70
2022/11/01 16:21:19;;;;;;;;;;;17.30;99.90;;;;;;5123484;27;19997;-70
2022/11/01 16:24:04;;;;;;;;;;;17.20;99.90;;;;;;5106587;27;19965;-70
2022/11/01 16:26:30;;;;;;;;;;;17.20;99.90;;;;;;5102694;27;19936;-71
2022/11/01 16:28:56;;;;;;;;;;;17.30;99.90;;;;;;5107588;27;19911;-71
2022/11/01 16:31:21;;;;;;;;;;;17.40;99.90;;;;;;5125281;27;19919;-71
2022/11/01 16:33:47;;;;;;;;;;;17.50;99.90;;;;;;5125601;27;19997;-71
2022/11/01 16:36:18;;;;;;;;;;;17.50;99.90;;;;;;5138218;27;19922;-70
2022/11/01 16:38:48;;;;;;;;;;;17.40;99.90;;;;;;5113514;27;19916;-71
2022/11/01 16:41:16;;;;;;;;;;;17.30;99.90;;;;;;5108060;27;19916;-72
2022/11/01 16:43:41;;;;;;;;;;;17.10;99.90;;;;;;5112292;27;20354;-72
2022/11/01 16:46:07;;;;;;;;;;;17.00;99.90;;;;;;5132511;27;19961;-71
2022/11/01 16:48:46;;;;;;;;;;;16.80;99.90;;;;;;5140831;27;19911;-72
2022/11/01 16:51:12;;;;;;;;;;;16.80;99.90;;;;;;5140260;27;20430;-72
2022/11/01 16:53:37;;;;;;;;;;;16.80;99.90;;;;;;5106390;27;20362;-71
2022/11/01 16:56:08;;;;;;;;;;;16.80;99.90;;;;;;5102515;27;20295;-70
2022/11/01 16:58:35;;;;;;;;;;;16.90;99.90;;;;;;5127162;27;19953;-72
2022/11/01 17:01:01;;;;;;;;;;;16.90;99.90;;;;;;5129863;27;19958;-71
2022/11/01 17:03:28;;;;;;;;;;;17.00;99.90;;;;;;5113536;27;19937;-71
2022/11/01 17:05:54;;;;;;;;;;;17.00;99.90;;;;;;5101781;27;19926;-71
2022/11/01 17:08:20;;;;;;;;;;;17.20;99.90;;;;;;5095893;27;19928;-71
2022/11/01 17:10:47;;;;;;;;;;;17.20;99.90;;;;;;5131102;27;20391;-72
2022/11/01 17:13:12;;;;;;;;;;;17.30;99.90;;;;;;5119528;27;20003;-71
2022/11/01 17:15:40;;;;;;;;;;;17.30;99.90;;;;;;5098644;27;19919;-71
2022/11/01 17:18:07;;;;;;;;;;;17.10;99.90;;;;;;5112972;27;20724;-71
2022/11/01 17:20:33;;;;;;;;;;;17.00;99.90;;;;;;5109988;27;19916;-71
2022/11/01 17:22:58;;;;;;;;;;;17.00;99.90;;;;;;5119183;27;19975;-71
2022/11/01 17:25:27;;;;;;;;;;;16.90;99.90;;;;;;5119819;27;19915;-72
2022/11/01 17:27:53;;;;;;;;;;;17.00;99.90;;;;;;5119133;27;19981;-71
2022/11/01 17:30:19;;;;;;;;;;;17.10;99.90;;;;;;5114135;27;19916;-71
2022/11/01 17:32:45;;;;;;;;;;;17.10;99.90;;;;;;5099177;28;19926;-71
2022/11/01 17:35:11;;;;;;;;;;;17.10;99.90;;;;;;5119715;27;19915;-71
2022/11/01 17:37:37;;;;;;;;;;;17.20;99.90;;;;;;5131418;27;19962;-71
2022/11/01 17:40:03;;;;;;;;;;;17.20;99.90;;;;;;5114236;27;19916;-71
2022/11/01 17:42:28;;;;;;;;;;;17.20;99.90;;;;;;5102603;27;19926;-72
2022/11/01 17:44:54;;;;;;;;;;;17.30;99.90;;;;;;5102294;27;19923;-71
2022/11/01 17:47:19;;;;;;;;;;;17.00;99.90;;;;;;5098365;27;20342;-71
2022/11/01 17:49:45;;;;;;;;;;;16.60;99.90;;;;;;5119573;27;20438;-72
2022/11/01 17:52:11;;;;;;;;;;;16.30;99.90;;;;;;5110324;27;19915;-71
2022/11/01 17:54:36;;;;;;;;;;;16.00;99.90;;;;;;5113811;27;19924;-72
2022/11/01 17:57:02;;;;;;;;;;;15.80;99.90;;;;;;5120117;27;19915;-72
2022/11/01 17:59:27;;;;;;;;;;;15.60;99.90;;;;;;5123162;27;20267;-72
2022/11/01 18:01:53;;;;;;;;;;;15.70;99.90;;;;;;5137497;27;20329;-72
2022/11/01 18:04:18;;;;;;;;;;;15.30;99.90;;;;;;5139583;27;19930;-72
2022/11/01 18:06:44;;;;;;;;;;;15.10;99.90;;;;;;5098246;27;19922;-71
2022/11/01 18:09:36;;;;;;;;;;;15.00;99.90;;;;;;5111061;27;20358;-71
2022/11/01 18:12:08;;;;;;;;;;;15.00;99.90;;;;;;5098958;28;20389;-71
2022/11/01 18:14:54;;;;;;;;;;;15.00;99.90;;;;;;5116997;27;20153;-70
2022/11/01 18:17:19;;;;;;;;;;;15.00;99.90;;;;;;5112667;27;19916;-71
2022/11/01 18:20:00;;;;;;;;;;;14.90;99.90;;;;;;5133558;27;19915;-71
2022/11/01 18:22:44;;;;;;;;;;;15.00;99.90;;;;;;5128745;27;20371;-71
2022/11/01 18:25:18;;;;;;;;;;;14.90;99.90;;;;;;5134835;27;19970;-71
2022/11/01 18:27:44;;;;;;;;;;;14.90;99.90;;;;;;5111016;27;19915;-71
2022/11/01 18:30:18;;;;;;;;;;;14.90;99.90;;;;;;5114840;27;19924;-71
2022/11/01 18:32:48;;;;;;;;;;;15.00;99.90;;;;;;5114873;27;19915;-72
2022/11/01 18:35:29;;;;;;;;;;;15.00;99.90;;;;;;5117392;27;19978;-71
2022/11/01 18:37:54;;;;;;;;;;;15.00;99.90;;;;;;5136439;27;20395;-71
2022/11/01 18:40:32;;;;;;;;;;;15.10;99.90;;;;;;5118817;27;19914;-71
2022/11/01 18:42:57;;;;;;;;;;;15.10;99.90;;;;;;5102244;27;19974;-71
2022/11/01 18:45:24;;;;;;;;;;;15.20;99.90;;;;;;5100083;27;19947;-71
2022/11/01 18:47:56;;;;;;;;;;;15.30;99.90;;;;;;5103119;27;20006;-70
2022/11/01 18:50:23;;;;;;;;;;;15.30;99.90;;;;;;5124229;27;20387;-70
2022/11/01 18:52:58;;;;;;;;;;;15.40;99.90;;;;;;5099269;27;20023;-71
2022/11/01 18:55:24;;;;;;;;;;;15.40;99.90;;;;;;5118784;27;19950;-70
2022/11/01 18:57:51;;;;;;;;;;;15.50;99.90;;;;;;5129537;27;20430;-70
2022/11/01 19:00:17;;;;;;;;;;;15.60;99.90;;;;;;5106821;27;20289;-70
2022/11/01 19:02:42;;;;;;;;;;;15.70;99.90;;;;;;5124845;27;19916;-70
2022/11/01 19:05:16;;;;;;;;;;;15.90;99.90;;;;;;5116717;27;19963;-70
2022/11/01 19:07:42;;;;;;;;;;;16.00;99.90;;;;;;5115204;27;19916;-70
2022/11/01 19:10:18;;;;;;;;;;;16.10;99.90;;;;;;5118768;27;20408;-70
2022/11/01 19:12:53;;;;;;;;;;;16.10;99.90;;;;;;5116972;27;20512;-70
2022/11/01 19:15:21;;;;;;;;;;;16.20;99.90;;;;;;5126176;27;19915;-70
2022/11/01 19:17:48;;;;;;;;;;;16.20;99.90;;;;;;5093804;27;19916;-70
2022/11/01 19:20:22;;;;;;;;;;;16.20;99.90;;;;;;5115645;27;20451;-70
2022/11/01 19:22:47;;;;;;;;;;;16.20;99.90;;;;;;5130443;27;19915;-70
2022/11/01 19:25:15;;;;;;;;;;;16.20;99.90;;;;;;5114985;27;19919;-70
2022/11/01 19:27:41;;;;;;;;;;;16.10;99.90;;;;;;5107049;27;19930;-71
2022/11/01 19:30:15;;;;;;;;;;;15.80;99.90;;;;;;5123027;27;20165;-71
2022/11/01 19:32:41;;;;;;;;;;;15.60;99.90;;;;;;5136547;27;19915;-71
2022/11/01 19:35:10;;;;;;;;;;;15.50;99.90;;;;;;5114186;27;19990;-70
2022/11/01 19:37:39;;;;;;;;;;;15.40;99.90;;;;;;5120570;27;19968;-70
2022/11/01 19:40:11;;;;;;;;;;;15.40;99.90;;;;;;5128077;27;20006;-71
2022/11/01 19:42:37;;;;;;;;;;;15.30;99.90;;;;;;5104942;27;20090;-71
2022/11/01 19:45:09;;;;;;;;;;;15.30;99.90;;;;;;5114456;27;19937;-71
2022/11/01 19:47:38;;;;;;;;;;;15.10;99.90;;;;;;5113901;27;20434;-71
2022/11/01 19:50:27;;;;;;;;;;;15.00;99.90;;;;;;5119033;28;19919;-71
2022/11/01 19:52:56;;;;;;;;;;;15.00;99.90;;;;;;5105035;27;19930;-70
2022/11/01 19:55:40;;;;;;;;;;;15.10;99.90;;;;;;5108671;27;19919;-69
2022/11/01 19:58:21;;;;;;;;;;;15.20;99.90;;;;;;5121492;27;20370;-70
2022/11/01 20:00:47;;;;;;;;;;;15.30;99.90;;;;;;5117728;27;20376;-71
2022/11/01 20:03:32;;;;;;;;;;;15.10;99.90;;;;;;5121804;27;19923;-71
2022/11/01 20:05:57;;;;;;;;;;;14.90;99.90;;;;;;5130584;27;20435;-71
2022/11/01 20:08:32;;;;;;;;;;;14.70;99.90;;;;;;5118477;27;19919;-70
2022/11/01 20:10:58;;;;;;;;;;;14.50;99.90;;;;;;5101123;27;20326;-72
2022/11/01 20:13:23;;;;;;;;;;;14.50;99.90;;;;;;5117750;28;19919;-72
2022/11/01 20:15:49;;;;;;;;;;;15.20;99.90;;;;;;5120319;27;20441;-72
2022/11/01 20:18:15;;;;;;;;;;;14.90;99.90;;;;;;5123861;27;19968;-71
2022/11/01 20:20:44;;;;;;;;;;;14.50;99.90;;;;;;5115028;28;19915;-71
2022/11/01 20:23:10;;;;;;;;;;;14.40;99.90;;;;;;5099339;28;19923;-71
2022/11/01 20:25:37;;;;;;;;;;;14.20;99.90;;;;;;5115171;27;19911;-71
2022/11/01 20:28:02;;;;;;;;;;;14.20;99.90;;;;;;5117090;27;19922;-71
2022/11/01 20:30:28;;;;;;;;;;;14.20;99.90;;;;;;5112734;27;20294;-71
2022/11/01 20:32:53;;;;;;;;;;;14.10;99.90;;;;;;5128979;27;19961;-71
2022/11/01 20:35:19;;;;;;;;;;;14.00;99.90;;;;;;5132110;27;19915;-71
2022/11/01 20:37:44;;;;;;;;;;;14.00;99.90;;;;;;5099762;28;20386;-70
2022/11/01 20:40:11;;;;;;;;;;;13.90;99.90;;;;;;5098212;27;20467;-70
2022/11/01 20:42:37;;;;;;;;;;;13.80;99.90;;;;;;5109499;27;20015;-70
2022/11/01 20:45:02;;;;;;;;;;;13.70;99.90;;;;;;5101298;27;19912;-70
2022/11/01 20:47:28;;;;;;;;;;;13.70;99.90;;;;;;5098682;27;19943;-70
2022/11/01 20:49:53;;;;;;;;;;;13.70;99.90;;;;;;5086308;27;20397;-70
2022/11/01 20:52:20;;;;;;;;;;;13.80;99.90;;;;;;5141453;27;20234;-71
2022/11/01 20:54:45;;;;;;;;;;;13.80;99.90;;;;;;5136431;27;19933;-70
2022/11/01 20:57:11;;;;;;;;;;;14.00;99.90;;;;;;5114991;27;19998;-71
2022/11/01 20:59:36;;;;;;;;;;;14.20;99.90;;;;;;5117199;27;20365;-70
2022/11/01 21:02:07;;;;;;;;;;;14.50;99.90;;;;;;5123632;27;20544;-70
2022/11/01 21:04:37;;;;;;;;;;;14.70;99.90;;;;;;5141020;27;19943;-70